sensor_id;sensor_type;location;lat;lon;timestamp;P1;durP1;ratioP1;P2;durP2;ratioP2
45198;SDS011;30941;46.422;18.772;2023-02-28T00:00:09;13.77;;;8.23;;
45198;SDS011;30941;46.422;18.772;2023-02-28T00:02:37;19.85;;;9.18;;
45198;SDS011;30941;46.422;18.772;2023-02-28T00:05:03;19.15;;;9.45;;
45198;SDS011;30941;46.422;18.772;2023-02-28T00:07:30;13.65;;;7.93;;
45198;SDS011;30941;46.422;18.772;2023-02-28T00:09:55;16.42;;;8.90;;
45198;SDS011;30941;46.422;18.772;2023-02-28T00:12:21;13.95;;;8.85;;
45198;SDS011;30941;46.422;18.772;2023-02-28T00:14:46;19.00;;;10.27;;
45198;SDS011;30941;46.422;18.772;2023-02-28T00:17:12;16.98;;;8.93;;
45198;SDS011;30941;46.422;18.772;2023-02-28T00:19:37;14.85;;;9.60;;
45198;SDS011;30941;46.422;18.772;2023-02-28T00:22:03;18.70;;;10.80;;
45198;SDS011;30941;46.422;18.772;2023-02-28T00:24:28;23.10;;;10.60;;
45198;SDS011;30941;46.422;18.772;2023-02-28T00:26:53;18.13;;;10.73;;
45198;SDS011;30941;46.422;18.772;2023-02-28T00:29:19;18.00;;;9.57;;
45198;SDS011;30941;46.422;18.772;2023-02-28T00:31:44;16.92;;;9.52;;
45198;SDS011;30941;46.422;18.772;2023-02-28T00:34:10;17.02;;;10.23;;
45198;SDS011;30941;46.422;18.772;2023-02-28T00:36:35;19.20;;;10.45;;
45198;SDS011;30941;46.422;18.772;2023-02-28T00:39:00;18.33;;;10.68;;
45198;SDS011;30941;46.422;18.772;2023-02-28T00:41:26;19.42;;;10.32;;
45198;SDS011;30941;46.422;18.772;2023-02-28T00:43:51;19.38;;;10.48;;
45198;SDS011;30941;46.422;18.772;2023-02-28T00:46:16;20.88;;;11.05;;
45198;SDS011;30941;46.422;18.772;2023-02-28T00:48:42;19.27;;;10.35;;
45198;SDS011;30941;46.422;18.772;2023-02-28T00:51:08;21.73;;;11.93;;
45198;SDS011;30941;46.422;18.772;2023-02-28T00:53:33;20.70;;;10.82;;
45198;SDS011;30941;46.422;18.772;2023-02-28T00:55:59;20.10;;;11.48;;
45198;SDS011;30941;46.422;18.772;2023-02-28T00:58:24;23.30;;;12.70;;
45198;SDS011;30941;46.422;18.772;2023-02-28T01:00:50;23.77;;;10.80;;
45198;SDS011;30941;46.422;18.772;2023-02-28T01:03:18;22.00;;;11.20;;
45198;SDS011;30941;46.422;18.772;2023-02-28T01:05:44;21.30;;;10.95;;
45198;SDS011;30941;46.422;18.772;2023-02-28T01:08:09;20.05;;;10.30;;
45198;SDS011;30941;46.422;18.772;2023-02-28T01:10:35;21.40;;;10.93;;
45198;SDS011;30941;46.422;18.772;2023-02-28T01:13:02;19.08;;;10.98;;
45198;SDS011;30941;46.422;18.772;2023-02-28T01:15:27;20.52;;;11.63;;
45198;SDS011;30941;46.422;18.772;2023-02-28T01:17:53;20.00;;;10.55;;
45198;SDS011;30941;46.422;18.772;2023-02-28T01:20:18;20.42;;;12.07;;
45198;SDS011;30941;46.422;18.772;2023-02-28T01:22:44;21.42;;;10.82;;
45198;SDS011;30941;46.422;18.772;2023-02-28T01:25:09;20.75;;;11.90;;
45198;SDS011;30941;46.422;18.772;2023-02-28T01:27:35;21.30;;;11.35;;
45198;SDS011;30941;46.422;18.772;2023-02-28T01:30:01;19.35;;;11.40;;
45198;SDS011;30941;46.422;18.772;2023-02-28T01:32:27;22.88;;;11.57;;
45198;SDS011;30941;46.422;18.772;2023-02-28T01:34:52;19.05;;;10.73;;
45198;SDS011;30941;46.422;18.772;2023-02-28T01:37:18;21.42;;;12.43;;
45198;SDS011;30941;46.422;18.772;2023-02-28T01:39:43;23.10;;;12.15;;
45198;SDS011;30941;46.422;18.772;2023-02-28T01:42:09;20.00;;;11.57;;
45198;SDS011;30941;46.422;18.772;2023-02-28T01:49:44;22.35;;;10.88;;
45198;SDS011;30941;46.422;18.772;2023-02-28T01:52:09;22.20;;;10.73;;
45198;SDS011;30941;46.422;18.772;2023-02-28T01:54:39;18.20;;;11.52;;
45198;SDS011;30941;46.422;18.772;2023-02-28T01:57:10;17.60;;;9.90;;
45198;SDS011;30941;46.422;18.772;2023-02-28T02:02:13;21.80;;;11.32;;
45198;SDS011;30941;46.422;18.772;2023-02-28T02:04:41;22.17;;;11.57;;
45198;SDS011;30941;46.422;18.772;2023-02-28T02:07:32;21.80;;;10.57;;
45198;SDS011;30941;46.422;18.772;2023-02-28T02:10:06;19.83;;;11.38;;
45198;SDS011;30941;46.422;18.772;2023-02-28T02:35:13;15.70;;;9.27;;
45198;SDS011;30941;46.422;18.772;2023-02-28T02:37:50;18.92;;;9.40;;
45198;SDS011;30941;46.422;18.772;2023-02-28T02:42:47;15.98;;;8.85;;
45198;SDS011;30941;46.422;18.772;2023-02-28T02:45:22;14.10;;;8.70;;
45198;SDS011;30941;46.422;18.772;2023-02-28T02:47:51;13.77;;;8.57;;
45198;SDS011;30941;46.422;18.772;2023-02-28T02:50:20;16.55;;;9.48;;
45198;SDS011;30941;46.422;18.772;2023-02-28T02:52:49;14.77;;;8.73;;
45198;SDS011;30941;46.422;18.772;2023-02-28T02:55:17;16.52;;;9.63;;
45198;SDS011;30941;46.422;18.772;2023-02-28T02:58:05;17.30;;;9.10;;
45198;SDS011;30941;46.422;18.772;2023-02-28T03:00:31;16.70;;;8.55;;
45198;SDS011;30941;46.422;18.772;2023-02-28T03:03:02;15.77;;;8.45;;
45198;SDS011;30941;46.422;18.772;2023-02-28T03:05:30;14.98;;;8.45;;
45198;SDS011;30941;46.422;18.772;2023-02-28T03:08:07;13.18;;;8.43;;
45198;SDS011;30941;46.422;18.772;2023-02-28T03:10:40;19.10;;;8.48;;
45198;SDS011;30941;46.422;18.772;2023-02-28T03:15:58;15.00;;;8.80;;
45198;SDS011;30941;46.422;18.772;2023-02-28T03:23:48;23.35;;;9.07;;
45198;SDS011;30941;46.422;18.772;2023-02-28T03:26:45;16.00;;;9.50;;
45198;SDS011;30941;46.422;18.772;2023-02-28T03:29:17;17.52;;;8.57;;
45198;SDS011;30941;46.422;18.772;2023-02-28T03:34:48;20.80;;;9.95;;
45198;SDS011;30941;46.422;18.772;2023-02-28T03:37:19;14.98;;;8.27;;
45198;SDS011;30941;46.422;18.772;2023-02-28T03:39:47;15.15;;;9.32;;
45198;SDS011;30941;46.422;18.772;2023-02-28T03:42:20;15.15;;;8.77;;
45198;SDS011;30941;46.422;18.772;2023-02-28T03:45:04;16.92;;;9.88;;
45198;SDS011;30941;46.422;18.772;2023-02-28T03:50:05;18.17;;;8.85;;
45198;SDS011;30941;46.422;18.772;2023-02-28T03:52:34;15.95;;;8.98;;
45198;SDS011;30941;46.422;18.772;2023-02-28T03:55:03;15.90;;;8.77;;
45198;SDS011;30941;46.422;18.772;2023-02-28T04:00:20;15.50;;;8.68;;
45198;SDS011;30941;46.422;18.772;2023-02-28T04:02:48;22.85;;;9.38;;
45198;SDS011;30941;46.422;18.772;2023-02-28T04:05:18;19.25;;;9.48;;
45198;SDS011;30941;46.422;18.772;2023-02-28T04:07:44;13.30;;;8.27;;
45198;SDS011;30941;46.422;18.772;2023-02-28T04:10:10;13.90;;;9.23;;
45198;SDS011;30941;46.422;18.772;2023-02-28T04:12:36;15.52;;;9.13;;
45198;SDS011;30941;46.422;18.772;2023-02-28T04:15:02;18.35;;;9.07;;
45198;SDS011;30941;46.422;18.772;2023-02-28T04:17:27;19.65;;;9.38;;
45198;SDS011;30941;46.422;18.772;2023-02-28T04:19:53;14.13;;;8.32;;
45198;SDS011;30941;46.422;18.772;2023-02-28T04:22:21;22.02;;;9.95;;
45198;SDS011;30941;46.422;18.772;2023-02-28T04:24:47;17.52;;;9.35;;
45198;SDS011;30941;46.422;18.772;2023-02-28T04:27:12;18.70;;;9.27;;
45198;SDS011;30941;46.422;18.772;2023-02-28T04:29:37;20.05;;;8.55;;
45198;SDS011;30941;46.422;18.772;2023-02-28T04:32:03;15.07;;;8.73;;
45198;SDS011;30941;46.422;18.772;2023-02-28T04:34:30;16.77;;;8.88;;
45198;SDS011;30941;46.422;18.772;2023-02-28T04:36:56;19.85;;;10.25;;
45198;SDS011;30941;46.422;18.772;2023-02-28T04:39:22;17.95;;;10.35;;
45198;SDS011;30941;46.422;18.772;2023-02-28T04:41:49;21.98;;;10.80;;
45198;SDS011;30941;46.422;18.772;2023-02-28T04:44:15;18.05;;;10.75;;
45198;SDS011;30941;46.422;18.772;2023-02-28T04:46:41;19.38;;;9.30;;
45198;SDS011;30941;46.422;18.772;2023-02-28T04:49:08;19.27;;;10.73;;
45198;SDS011;30941;46.422;18.772;2023-02-28T04:51:35;22.85;;;11.63;;
45198;SDS011;30941;46.422;18.772;2023-02-28T04:54:00;22.05;;;11.68;;
45198;SDS011;30941;46.422;18.772;2023-02-28T04:56:25;24.80;;;14.30;;
45198;SDS011;30941;46.422;18.772;2023-02-28T04:58:51;23.77;;;13.57;;
45198;SDS011;30941;46.422;18.772;2023-02-28T05:01:25;26.05;;;13.95;;
45198;SDS011;30941;46.422;18.772;2023-02-28T05:03:56;21.02;;;12.48;;
45198;SDS011;30941;46.422;18.772;2023-02-28T05:06:24;26.58;;;12.93;;
45198;SDS011;30941;46.422;18.772;2023-02-28T05:08:50;22.95;;;12.63;;
45198;SDS011;30941;46.422;18.772;2023-02-28T05:11:20;25.70;;;14.10;;
45198;SDS011;30941;46.422;18.772;2023-02-28T05:13:49;25.98;;;13.55;;
45198;SDS011;30941;46.422;18.772;2023-02-28T05:16:15;24.10;;;12.48;;
45198;SDS011;30941;46.422;18.772;2023-02-28T05:18:40;20.60;;;11.90;;
45198;SDS011;30941;46.422;18.772;2023-02-28T05:21:12;22.13;;;12.27;;
45198;SDS011;30941;46.422;18.772;2023-02-28T05:23:53;22.45;;;12.90;;
45198;SDS011;30941;46.422;18.772;2023-02-28T05:26:19;21.30;;;11.77;;
45198;SDS011;30941;46.422;18.772;2023-02-28T05:28:45;23.63;;;13.13;;
45198;SDS011;30941;46.422;18.772;2023-02-28T05:31:11;21.60;;;12.93;;
45198;SDS011;30941;46.422;18.772;2023-02-28T05:33:36;20.98;;;12.23;;
45198;SDS011;30941;46.422;18.772;2023-02-28T05:36:02;19.38;;;12.60;;
45198;SDS011;30941;46.422;18.772;2023-02-28T05:38:28;19.23;;;12.30;;
45198;SDS011;30941;46.422;18.772;2023-02-28T05:40:53;20.58;;;11.57;;
45198;SDS011;30941;46.422;18.772;2023-02-28T05:43:18;21.00;;;12.05;;
45198;SDS011;30941;46.422;18.772;2023-02-28T05:45:44;23.25;;;12.80;;
45198;SDS011;30941;46.422;18.772;2023-02-28T05:48:09;21.70;;;12.60;;
45198;SDS011;30941;46.422;18.772;2023-02-28T05:50:35;21.95;;;12.57;;
45198;SDS011;30941;46.422;18.772;2023-02-28T05:53:01;23.83;;;12.35;;
45198;SDS011;30941;46.422;18.772;2023-02-28T05:55:26;21.55;;;12.48;;
45198;SDS011;30941;46.422;18.772;2023-02-28T05:57:52;24.08;;;11.98;;
45198;SDS011;30941;46.422;18.772;2023-02-28T06:00:17;23.13;;;13.05;;
45198;SDS011;30941;46.422;18.772;2023-02-28T06:02:43;24.70;;;13.55;;
45198;SDS011;30941;46.422;18.772;2023-02-28T06:05:13;24.63;;;13.02;;
45198;SDS011;30941;46.422;18.772;2023-02-28T06:07:39;25.13;;;12.93;;
45198;SDS011;30941;46.422;18.772;2023-02-28T06:10:04;21.55;;;12.50;;
45198;SDS011;30941;46.422;18.772;2023-02-28T06:12:30;22.85;;;13.98;;
45198;SDS011;30941;46.422;18.772;2023-02-28T06:14:56;25.90;;;14.70;;
45198;SDS011;30941;46.422;18.772;2023-02-28T06:17:21;26.35;;;13.63;;
45198;SDS011;30941;46.422;18.772;2023-02-28T06:19:46;26.27;;;14.43;;
45198;SDS011;30941;46.422;18.772;2023-02-28T06:22:13;24.90;;;15.50;;
45198;SDS011;30941;46.422;18.772;2023-02-28T06:24:38;27.02;;;14.80;;
45198;SDS011;30941;46.422;18.772;2023-02-28T06:27:09;22.67;;;12.68;;
45198;SDS011;30941;46.422;18.772;2023-02-28T06:29:35;20.10;;;12.55;;
45198;SDS011;30941;46.422;18.772;2023-02-28T06:32:00;20.15;;;12.55;;
45198;SDS011;30941;46.422;18.772;2023-02-28T06:34:26;19.73;;;11.65;;
45198;SDS011;30941;46.422;18.772;2023-02-28T06:36:52;25.13;;;12.25;;
45198;SDS011;30941;46.422;18.772;2023-02-28T06:39:17;26.75;;;12.93;;
45198;SDS011;30941;46.422;18.772;2023-02-28T06:41:43;23.02;;;12.82;;
45198;SDS011;30941;46.422;18.772;2023-02-28T06:44:16;19.00;;;10.95;;
45198;SDS011;30941;46.422;18.772;2023-02-28T06:46:43;21.38;;;10.85;;
45198;SDS011;30941;46.422;18.772;2023-02-28T06:49:09;16.05;;;10.85;;
45198;SDS011;30941;46.422;18.772;2023-02-28T06:51:39;20.80;;;10.07;;
45198;SDS011;30941;46.422;18.772;2023-02-28T06:54:06;21.25;;;11.55;;
45198;SDS011;30941;46.422;18.772;2023-02-28T06:56:34;18.23;;;11.48;;
45198;SDS011;30941;46.422;18.772;2023-02-28T06:59:00;18.48;;;11.65;;
45198;SDS011;30941;46.422;18.772;2023-02-28T07:01:25;19.95;;;10.55;;
45198;SDS011;30941;46.422;18.772;2023-02-28T07:03:52;21.70;;;11.63;;
45198;SDS011;30941;46.422;18.772;2023-02-28T07:06:19;18.48;;;10.43;;
45198;SDS011;30941;46.422;18.772;2023-02-28T07:11:35;18.70;;;10.90;;
45198;SDS011;30941;46.422;18.772;2023-02-28T07:14:01;17.65;;;10.68;;
45198;SDS011;30941;46.422;18.772;2023-02-28T07:16:26;15.88;;;9.73;;
45198;SDS011;30941;46.422;18.772;2023-02-28T07:18:52;17.73;;;10.05;;
45198;SDS011;30941;46.422;18.772;2023-02-28T07:21:18;15.95;;;9.68;;
45198;SDS011;30941;46.422;18.772;2023-02-28T07:23:43;18.50;;;10.88;;
45198;SDS011;30941;46.422;18.772;2023-02-28T07:26:13;17.95;;;9.88;;
45198;SDS011;30941;46.422;18.772;2023-02-28T07:28:44;18.15;;;10.68;;
45198;SDS011;30941;46.422;18.772;2023-02-28T07:31:10;17.00;;;10.57;;
45198;SDS011;30941;46.422;18.772;2023-02-28T07:33:37;22.92;;;12.52;;
45198;SDS011;30941;46.422;18.772;2023-02-28T07:36:03;19.20;;;10.35;;
45198;SDS011;30941;46.422;18.772;2023-02-28T07:38:36;19.23;;;10.40;;
45198;SDS011;30941;46.422;18.772;2023-02-28T07:41:02;15.68;;;10.35;;
45198;SDS011;30941;46.422;18.772;2023-02-28T07:43:31;18.60;;;9.77;;
45198;SDS011;30941;46.422;18.772;2023-02-28T07:46:07;17.63;;;10.32;;
45198;SDS011;30941;46.422;18.772;2023-02-28T07:48:34;17.77;;;10.13;;
45198;SDS011;30941;46.422;18.772;2023-02-28T07:51:00;15.90;;;9.68;;
45198;SDS011;30941;46.422;18.772;2023-02-28T07:53:26;18.13;;;10.00;;
45198;SDS011;30941;46.422;18.772;2023-02-28T07:55:59;16.98;;;9.80;;
45198;SDS011;30941;46.422;18.772;2023-02-28T07:58:26;15.95;;;9.48;;
45198;SDS011;30941;46.422;18.772;2023-02-28T08:00:52;15.60;;;9.63;;
45198;SDS011;30941;46.422;18.772;2023-02-28T08:03:18;19.20;;;10.50;;
45198;SDS011;30941;46.422;18.772;2023-02-28T08:05:45;13.68;;;8.75;;
45198;SDS011;30941;46.422;18.772;2023-02-28T08:08:10;14.98;;;8.77;;
45198;SDS011;30941;46.422;18.772;2023-02-28T08:10:36;15.27;;;7.93;;
45198;SDS011;30941;46.422;18.772;2023-02-28T08:13:01;14.80;;;9.15;;
45198;SDS011;30941;46.422;18.772;2023-02-28T08:15:27;17.23;;;8.95;;
45198;SDS011;30941;46.422;18.772;2023-02-28T08:17:52;15.05;;;8.55;;
45198;SDS011;30941;46.422;18.772;2023-02-28T08:20:18;17.25;;;9.40;;
45198;SDS011;30941;46.422;18.772;2023-02-28T08:22:43;14.68;;;8.25;;
45198;SDS011;30941;46.422;18.772;2023-02-28T08:25:09;16.58;;;8.85;;
45198;SDS011;30941;46.422;18.772;2023-02-28T08:27:34;16.77;;;8.25;;
45198;SDS011;30941;46.422;18.772;2023-02-28T08:30:00;15.05;;;7.97;;
45198;SDS011;30941;46.422;18.772;2023-02-28T08:32:26;17.98;;;9.52;;
45198;SDS011;30941;46.422;18.772;2023-02-28T08:34:51;14.75;;;8.68;;
45198;SDS011;30941;46.422;18.772;2023-02-28T08:37:16;13.75;;;8.20;;
45198;SDS011;30941;46.422;18.772;2023-02-28T08:39:42;17.20;;;9.07;;
45198;SDS011;30941;46.422;18.772;2023-02-28T08:42:07;19.10;;;9.52;;
45198;SDS011;30941;46.422;18.772;2023-02-28T08:44:33;25.88;;;12.80;;
45198;SDS011;30941;46.422;18.772;2023-02-28T08:46:58;19.15;;;11.30;;
45198;SDS011;30941;46.422;18.772;2023-02-28T08:49:24;18.13;;;9.80;;
45198;SDS011;30941;46.422;18.772;2023-02-28T08:51:49;15.38;;;9.45;;
45198;SDS011;30941;46.422;18.772;2023-02-28T08:54:14;16.55;;;8.90;;
45198;SDS011;30941;46.422;18.772;2023-02-28T08:56:44;19.80;;;9.60;;
45198;SDS011;30941;46.422;18.772;2023-02-28T08:59:11;17.48;;;9.68;;
45198;SDS011;30941;46.422;18.772;2023-02-28T09:01:36;15.55;;;9.50;;
45198;SDS011;30941;46.422;18.772;2023-02-28T09:04:02;15.43;;;8.27;;
45198;SDS011;30941;46.422;18.772;2023-02-28T09:06:27;15.25;;;8.98;;
45198;SDS011;30941;46.422;18.772;2023-02-28T09:08:55;14.77;;;8.40;;
45198;SDS011;30941;46.422;18.772;2023-02-28T09:11:23;14.95;;;9.13;;
45198;SDS011;30941;46.422;18.772;2023-02-28T09:13:48;12.40;;;8.82;;
45198;SDS011;30941;46.422;18.772;2023-02-28T09:16:14;16.02;;;8.07;;
45198;SDS011;30941;46.422;18.772;2023-02-28T09:18:41;15.70;;;8.07;;
45198;SDS011;30941;46.422;18.772;2023-02-28T09:21:07;18.88;;;9.35;;
45198;SDS011;30941;46.422;18.772;2023-02-28T09:23:34;12.98;;;8.75;;
45198;SDS011;30941;46.422;18.772;2023-02-28T09:26:00;13.77;;;7.85;;
45198;SDS011;30941;46.422;18.772;2023-02-28T09:28:25;15.40;;;8.07;;
45198;SDS011;30941;46.422;18.772;2023-02-28T09:30:52;17.73;;;8.57;;
45198;SDS011;30941;46.422;18.772;2023-02-28T09:33:19;13.15;;;7.70;;
45198;SDS011;30941;46.422;18.772;2023-02-28T09:35:48;16.15;;;7.40;;
45198;SDS011;30941;46.422;18.772;2023-02-28T09:38:14;14.60;;;8.25;;
45198;SDS011;30941;46.422;18.772;2023-02-28T09:43:11;12.88;;;8.02;;
45198;SDS011;30941;46.422;18.772;2023-02-28T09:45:39;16.48;;;8.57;;
45198;SDS011;30941;46.422;18.772;2023-02-28T09:48:09;12.25;;;7.63;;
45198;SDS011;30941;46.422;18.772;2023-02-28T09:53:04;13.00;;;7.25;;
45198;SDS011;30941;46.422;18.772;2023-02-28T09:58:27;12.93;;;8.02;;
45198;SDS011;30941;46.422;18.772;2023-02-28T10:01:09;12.93;;;7.95;;
45198;SDS011;30941;46.422;18.772;2023-02-28T10:03:48;16.98;;;9.00;;
45198;SDS011;30941;46.422;18.772;2023-02-28T10:11:26;15.80;;;8.65;;
45198;SDS011;30941;46.422;18.772;2023-02-28T10:14:12;18.40;;;9.75;;
45198;SDS011;30941;46.422;18.772;2023-02-28T10:16:45;12.68;;;8.02;;
45198;SDS011;30941;46.422;18.772;2023-02-28T10:19:21;15.70;;;8.15;;
45198;SDS011;30941;46.422;18.772;2023-02-28T10:24:35;15.70;;;7.75;;
45198;SDS011;30941;46.422;18.772;2023-02-28T10:29:43;15.63;;;8.75;;
45198;SDS011;30941;46.422;18.772;2023-02-28T10:32:11;12.57;;;9.07;;
45198;SDS011;30941;46.422;18.772;2023-02-28T10:34:39;16.58;;;9.32;;
45198;SDS011;30941;46.422;18.772;2023-02-28T10:37:05;14.60;;;8.60;;
45198;SDS011;30941;46.422;18.772;2023-02-28T10:39:37;14.55;;;8.50;;
45198;SDS011;30941;46.422;18.772;2023-02-28T10:42:05;14.25;;;8.98;;
45198;SDS011;30941;46.422;18.772;2023-02-28T10:44:44;15.98;;;8.65;;
45198;SDS011;30941;46.422;18.772;2023-02-28T10:47:16;14.30;;;8.65;;
45198;SDS011;30941;46.422;18.772;2023-02-28T10:49:49;13.23;;;7.63;;
45198;SDS011;30941;46.422;18.772;2023-02-28T10:52:32;13.00;;;8.50;;
45198;SDS011;30941;46.422;18.772;2023-02-28T10:57:48;12.50;;;8.02;;
45198;SDS011;30941;46.422;18.772;2023-02-28T11:02:41;14.13;;;8.45;;
45198;SDS011;30941;46.422;18.772;2023-02-28T11:05:23;15.75;;;9.75;;
45198;SDS011;30941;46.422;18.772;2023-02-28T11:10:19;16.08;;;8.32;;
45198;SDS011;30941;46.422;18.772;2023-02-28T11:12:46;15.15;;;9.07;;
45198;SDS011;30941;46.422;18.772;2023-02-28T11:15:21;12.32;;;8.82;;
45198;SDS011;30941;46.422;18.772;2023-02-28T11:17:54;15.98;;;8.48;;
45198;SDS011;30941;46.422;18.772;2023-02-28T11:20:23;13.02;;;9.30;;
45198;SDS011;30941;46.422;18.772;2023-02-28T11:22:50;15.45;;;9.38;;
45198;SDS011;30941;46.422;18.772;2023-02-28T11:27:57;13.38;;;8.40;;
45198;SDS011;30941;46.422;18.772;2023-02-28T11:30:30;11.60;;;7.90;;
45198;SDS011;30941;46.422;18.772;2023-02-28T11:33:01;14.48;;;9.68;;
45198;SDS011;30941;46.422;18.772;2023-02-28T11:38:23;13.00;;;8.25;;
45198;SDS011;30941;46.422;18.772;2023-02-28T11:43:28;13.88;;;9.43;;
45198;SDS011;30941;46.422;18.772;2023-02-28T11:46:18;18.20;;;8.23;;
45198;SDS011;30941;46.422;18.772;2023-02-28T11:51:42;14.93;;;8.90;;
45198;SDS011;30941;46.422;18.772;2023-02-28T11:56:43;18.55;;;9.98;;
45198;SDS011;30941;46.422;18.772;2023-02-28T11:59:16;19.77;;;11.05;;
45198;SDS011;30941;46.422;18.772;2023-02-28T12:04:52;16.92;;;10.00;;
45198;SDS011;30941;46.422;18.772;2023-02-28T12:21:21;14.65;;;8.90;;
45198;SDS011;30941;46.422;18.772;2023-02-28T12:27:03;12.73;;;8.55;;
45198;SDS011;30941;46.422;18.772;2023-02-28T12:29:33;23.17;;;9.75;;
45198;SDS011;30941;46.422;18.772;2023-02-28T12:32:06;18.42;;;10.85;;
45198;SDS011;30941;46.422;18.772;2023-02-28T12:34:55;15.40;;;9.98;;
45198;SDS011;30941;46.422;18.772;2023-02-28T12:37:30;14.00;;;10.13;;
45198;SDS011;30941;46.422;18.772;2023-02-28T12:40:03;14.43;;;9.70;;
45198;SDS011;30941;46.422;18.772;2023-02-28T12:42:51;15.55;;;9.88;;
45198;SDS011;30941;46.422;18.772;2023-02-28T12:45:23;20.73;;;12.10;;
45198;SDS011;30941;46.422;18.772;2023-02-28T12:47:55;17.85;;;10.35;;
45198;SDS011;30941;46.422;18.772;2023-02-28T12:50:22;17.05;;;10.32;;
45198;SDS011;30941;46.422;18.772;2023-02-28T12:55:41;16.88;;;10.23;;
45198;SDS011;30941;46.422;18.772;2023-02-28T13:06:58;17.10;;;10.35;;
45198;SDS011;30941;46.422;18.772;2023-02-28T13:09:34;19.35;;;11.27;;
45198;SDS011;30941;46.422;18.772;2023-02-28T13:12:00;18.55;;;10.77;;
45198;SDS011;30941;46.422;18.772;2023-02-28T13:17:10;17.33;;;11.05;;
45198;SDS011;30941;46.422;18.772;2023-02-28T13:22:40;26.95;;;11.48;;
45198;SDS011;30941;46.422;18.772;2023-02-28T13:27:47;15.98;;;9.70;;
45198;SDS011;30941;46.422;18.772;2023-02-28T13:38:39;15.32;;;10.48;;
45198;SDS011;30941;46.422;18.772;2023-02-28T13:41:48;17.45;;;11.60;;
45198;SDS011;30941;46.422;18.772;2023-02-28T13:44:02;18.40;;;12.32;;
45198;SDS011;30941;46.422;18.772;2023-02-28T13:46:32;19.33;;;11.90;;
45198;SDS011;30941;46.422;18.772;2023-02-28T13:49:17;16.85;;;10.60;;
45198;SDS011;30941;46.422;18.772;2023-02-28T13:51:44;23.02;;;11.43;;
45198;SDS011;30941;46.422;18.772;2023-02-28T13:56:42;22.65;;;12.80;;
45198;SDS011;30941;46.422;18.772;2023-02-28T13:59:19;19.33;;;12.23;;
45198;SDS011;30941;46.422;18.772;2023-02-28T14:07:49;25.25;;;15.07;;
45198;SDS011;30941;46.422;18.772;2023-02-28T14:10:41;30.33;;;14.63;;
45198;SDS011;30941;46.422;18.772;2023-02-28T14:15:57;23.60;;;13.75;;
45198;SDS011;30941;46.422;18.772;2023-02-28T14:18:28;21.88;;;13.15;;
45198;SDS011;30941;46.422;18.772;2023-02-28T14:21:04;18.02;;;11.60;;
45198;SDS011;30941;46.422;18.772;2023-02-28T14:28:54;21.55;;;11.38;;
45198;SDS011;30941;46.422;18.772;2023-02-28T14:32:01;19.33;;;10.95;;
45198;SDS011;30941;46.422;18.772;2023-02-28T14:34:52;14.90;;;10.07;;
45198;SDS011;30941;46.422;18.772;2023-02-28T14:37:25;15.50;;;11.10;;
45198;SDS011;30941;46.422;18.772;2023-02-28T14:39:52;16.00;;;10.20;;
45198;SDS011;30941;46.422;18.772;2023-02-28T14:42:28;15.65;;;10.70;;
45198;SDS011;30941;46.422;18.772;2023-02-28T14:45:02;28.65;;;17.30;;
45198;SDS011;30941;46.422;18.772;2023-02-28T14:47:30;24.25;;;13.55;;
45198;SDS011;30941;46.422;18.772;2023-02-28T14:49:57;42.80;;;20.90;;
45198;SDS011;30941;46.422;18.772;2023-02-28T14:52:25;25.63;;;14.45;;
45198;SDS011;30941;46.422;18.772;2023-02-28T14:54:57;16.05;;;10.02;;
45198;SDS011;30941;46.422;18.772;2023-02-28T14:57:29;15.82;;;10.02;;
45198;SDS011;30941;46.422;18.772;2023-02-28T15:00:15;19.45;;;11.43;;
45198;SDS011;30941;46.422;18.772;2023-02-28T15:02:45;20.85;;;15.20;;
45198;SDS011;30941;46.422;18.772;2023-02-28T15:07:46;23.52;;;13.52;;
45198;SDS011;30941;46.422;18.772;2023-02-28T15:15:24;20.45;;;13.25;;
45198;SDS011;30941;46.422;18.772;2023-02-28T15:17:53;25.98;;;14.20;;
45198;SDS011;30941;46.422;18.772;2023-02-28T15:20:19;23.92;;;13.65;;
45198;SDS011;30941;46.422;18.772;2023-02-28T15:22:46;23.85;;;12.75;;
45198;SDS011;30941;46.422;18.772;2023-02-28T15:25:13;17.63;;;12.15;;
45198;SDS011;30941;46.422;18.772;2023-02-28T15:27:44;18.40;;;10.00;;
45198;SDS011;30941;46.422;18.772;2023-02-28T15:30:23;18.15;;;10.20;;
45198;SDS011;30941;46.422;18.772;2023-02-28T15:35:49;19.77;;;10.48;;
45198;SDS011;30941;46.422;18.772;2023-02-28T15:38:25;19.48;;;10.90;;
45198;SDS011;30941;46.422;18.772;2023-02-28T15:40:58;19.13;;;11.07;;
45198;SDS011;30941;46.422;18.772;2023-02-28T15:43:31;20.92;;;11.93;;
45198;SDS011;30941;46.422;18.772;2023-02-28T15:45:58;38.03;;;18.95;;
45198;SDS011;30941;46.422;18.772;2023-02-28T15:48:42;31.95;;;18.13;;
45198;SDS011;30941;46.422;18.772;2023-02-28T15:51:18;33.65;;;23.15;;
45198;SDS011;30941;46.422;18.772;2023-02-28T15:53:48;36.20;;;23.85;;
45198;SDS011;30941;46.422;18.772;2023-02-28T15:58:55;39.72;;;21.10;;
45198;SDS011;30941;46.422;18.772;2023-02-28T16:01:25;21.48;;;12.10;;
45198;SDS011;30941;46.422;18.772;2023-02-28T16:03:58;19.70;;;11.50;;
45198;SDS011;30941;46.422;18.772;2023-02-28T16:06:32;19.63;;;10.80;;
45198;SDS011;30941;46.422;18.772;2023-02-28T16:09:09;19.15;;;11.13;;
45198;SDS011;30941;46.422;18.772;2023-02-28T16:11:39;18.92;;;11.30;;
45198;SDS011;30941;46.422;18.772;2023-02-28T16:14:10;20.67;;;12.18;;
45198;SDS011;30941;46.422;18.772;2023-02-28T16:16:41;21.90;;;11.68;;
45198;SDS011;30941;46.422;18.772;2023-02-28T16:19:07;30.00;;;17.08;;
45198;SDS011;30941;46.422;18.772;2023-02-28T16:21:33;26.52;;;14.50;;
45198;SDS011;30941;46.422;18.772;2023-02-28T16:23:58;22.27;;;13.32;;
45198;SDS011;30941;46.422;18.772;2023-02-28T16:26:24;19.60;;;12.05;;
45198;SDS011;30941;46.422;18.772;2023-02-28T16:28:51;18.20;;;11.93;;
45198;SDS011;30941;46.422;18.772;2023-02-28T16:31:17;17.48;;;10.43;;
45198;SDS011;30941;46.422;18.772;2023-02-28T16:33:46;20.30;;;12.32;;
45198;SDS011;30941;46.422;18.772;2023-02-28T16:36:19;22.33;;;14.20;;
45198;SDS011;30941;46.422;18.772;2023-02-28T16:38:46;22.88;;;12.63;;
45198;SDS011;30941;46.422;18.772;2023-02-28T16:41:13;25.25;;;13.80;;
45198;SDS011;30941;46.422;18.772;2023-02-28T16:43:44;20.55;;;13.02;;
45198;SDS011;30941;46.422;18.772;2023-02-28T16:46:11;21.20;;;12.95;;
45198;SDS011;30941;46.422;18.772;2023-02-28T16:48:37;20.48;;;11.43;;
45198;SDS011;30941;46.422;18.772;2023-02-28T16:51:05;21.00;;;12.38;;
45198;SDS011;30941;46.422;18.772;2023-02-28T16:53:31;21.70;;;12.73;;
45198;SDS011;30941;46.422;18.772;2023-02-28T16:55:57;19.95;;;11.93;;
45198;SDS011;30941;46.422;18.772;2023-02-28T16:58:23;18.80;;;11.77;;
45198;SDS011;30941;46.422;18.772;2023-02-28T17:00:50;19.70;;;12.10;;
45198;SDS011;30941;46.422;18.772;2023-02-28T17:03:24;19.75;;;12.00;;
45198;SDS011;30941;46.422;18.772;2023-02-28T17:05:51;20.02;;;12.63;;
45198;SDS011;30941;46.422;18.772;2023-02-28T17:08:18;22.08;;;13.73;;
45198;SDS011;30941;46.422;18.772;2023-02-28T17:10:44;21.25;;;13.63;;
45198;SDS011;30941;46.422;18.772;2023-02-28T17:13:09;30.83;;;15.70;;